createdAt,value
2018-06-22T09:25:17.122Z,16.90
2018-06-22T09:27:45.269Z,17.40
2018-06-22T09:30:13.453Z,17.60
2018-06-22T09:32:41.675Z,17.30
2018-06-22T09:35:09.900Z,16.90
2018-06-22T09:37:38.749Z,16.70
2018-06-22T09:40:07.125Z,17.00
2018-06-22T09:42:35.368Z,17.00
2018-06-22T09:45:04.660Z,17.10
2018-06-22T09:47:32.855Z,17.10
2018-06-22T09:50:01.068Z,17.30
2018-06-22T09:52:29.225Z,17.00
2018-06-22T09:54:57.409Z,17.00
2018-06-22T09:57:25.590Z,17.30
2018-06-22T09:59:53.758Z,17.80
2018-06-22T10:02:21.948Z,18.20
2018-06-22T10:04:50.322Z,18.40
2018-06-22T10:07:18.430Z,18.50
2018-06-22T10:09:46.663Z,18.80
2018-06-22T10:12:14.848Z,18.80
2018-06-22T10:14:43.048Z,18.80
2018-06-22T10:17:11.352Z,18.80
2018-06-22T10:19:39.804Z,18.50
2018-06-22T10:22:08.100Z,18.10
2018-06-22T10:24:36.310Z,17.70
2018-06-22T10:27:08.471Z,17.70
2018-06-22T10:29:36.693Z,18.00
2018-06-22T10:32:04.932Z,18.10
2018-06-22T10:34:33.285Z,17.80
2018-06-22T10:37:01.453Z,17.60
2018-06-22T10:39:29.673Z,17.60
2018-06-22T10:41:57.830Z,17.10
2018-06-22T10:44:26.070Z,16.90
2018-06-22T10:46:54.615Z,16.90
2018-06-22T10:49:22.821Z,16.90
2018-06-22T10:51:51.037Z,16.90
2018-06-22T10:54:19.235Z,16.90
2018-06-22T10:56:47.562Z,16.80
2018-06-22T10:59:16.772Z,17.10
2018-06-22T11:01:44.949Z,17.20
2018-06-22T11:04:13.136Z,17.10
2018-06-22T11:06:41.309Z,17.10
2018-06-22T11:09:11.205Z,17.10
2018-06-22T11:11:39.418Z,17.60
2018-06-22T11:14:07.645Z,17.90
2018-06-22T11:16:35.933Z,17.90
2018-06-22T11:19:04.641Z,17.80
2018-06-22T11:21:33.873Z,17.60
2018-06-22T11:26:30.198Z,17.90
2018-06-22T11:28:58.413Z,18.20
2018-06-22T11:31:26.664Z,18.20
2018-06-22T11:36:22.971Z,17.90
2018-06-22T11:38:51.164Z,17.80
2018-06-22T11:41:19.397Z,18.00
2018-06-22T11:43:47.856Z,17.80
2018-06-22T11:46:16.091Z,17.60
2018-06-22T11:48:44.305Z,17.30
2018-06-22T11:51:12.575Z,17.30
2018-06-22T11:53:40.806Z,17.50
2018-06-22T11:56:09.001Z,18.00
2018-06-22T11:58:37.194Z,18.20
2018-06-22T12:01:05.473Z,18.10
2018-06-22T12:06:01.979Z,17.60
2018-06-22T12:08:30.210Z,17.30
2018-06-22T12:10:59.056Z,17.00
2018-06-22T12:13:27.281Z,16.80
2018-06-22T12:15:55.455Z,16.70
2018-06-22T12:18:23.968Z,16.50
2018-06-22T12:20:52.136Z,16.30
2018-06-22T12:23:20.351Z,16.10
2018-06-22T12:25:48.554Z,16.10
2018-06-22T12:28:16.732Z,16.00
2018-06-22T12:33:14.918Z,16.10
2018-06-22T12:35:45.198Z,16.30
2018-06-22T12:38:13.394Z,16.80
2018-06-22T12:40:41.681Z,17.20
2018-06-22T12:43:09.939Z,17.30
2018-06-22T12:45:38.212Z,17.10
2018-06-22T12:48:06.474Z,16.80
2018-06-22T12:50:34.710Z,16.50
2018-06-22T12:53:03.897Z,16.50
2018-06-22T12:55:32.168Z,16.60
2018-06-22T12:58:00.360Z,16.40
2018-06-22T13:00:28.564Z,16.20
2018-06-22T13:02:56.773Z,16.00
2018-06-22T13:05:25.027Z,16.00
2018-06-22T13:07:53.289Z,15.90
2018-06-22T13:10:21.576Z,15.90
2018-06-22T13:12:49.959Z,16.10
2018-06-22T13:15:18.187Z,16.20
2018-06-22T13:17:46.372Z,16.40
2018-06-22T13:20:14.735Z,16.50
2018-06-22T13:22:43.001Z,16.40
2018-06-22T13:25:11.394Z,16.30
2018-06-22T13:27:39.656Z,16.20
2018-06-22T13:30:07.874Z,16.20
2018-06-22T13:32:36.085Z,16.00
2018-06-22T13:35:04.297Z,16.00
2018-06-22T13:37:32.540Z,16.00
2018-06-22T13:40:00.704Z,16.00
2018-06-22T13:42:28.900Z,16.00
2018-06-22T13:44:57.433Z,16.00
2018-06-22T13:47:25.920Z,16.00
2018-06-22T13:49:54.354Z,16.10
2018-06-22T13:52:22.602Z,16.30
2018-06-22T13:54:50.805Z,16.50
2018-06-22T13:57:19.002Z,16.60
2018-06-22T13:59:47.717Z,16.80
2018-06-22T14:02:15.917Z,17.00
2018-06-22T14:04:49.929Z,17.00
2018-06-22T14:07:18.330Z,17.00
2018-06-22T14:09:46.723Z,16.90
2018-06-22T14:12:14.954Z,17.00
2018-06-22T14:14:43.170Z,17.10
2018-06-22T14:17:11.365Z,17.20
2018-06-22T14:19:39.606Z,17.30
2018-06-22T14:22:07.786Z,17.10
2018-06-22T14:24:35.965Z,16.90
2018-06-22T14:27:04.180Z,16.80
2018-06-22T14:29:32.378Z,16.80
2018-06-22T14:32:00.899Z,16.70
2018-06-22T14:34:29.124Z,16.70
2018-06-22T14:36:57.353Z,16.70
2018-06-22T14:39:25.630Z,16.70
2018-06-22T14:41:53.877Z,16.80
2018-06-22T14:44:22.209Z,16.90
2018-06-22T14:46:51.082Z,16.80
2018-06-22T14:49:19.881Z,16.90
2018-06-22T14:51:52.312Z,16.90
2018-06-22T14:54:26.033Z,16.80
2018-06-22T14:57:58.277Z,16.90
2018-06-22T15:01:29.889Z,17.00
2018-06-22T15:04:03.476Z,17.20
2018-06-22T15:06:37.048Z,17.20
2018-06-22T15:09:08.069Z,17.10
2018-06-22T15:11:36.629Z,17.00
2018-06-22T15:14:06.417Z,16.90
2018-06-22T15:16:35.101Z,16.80
2018-06-22T15:19:03.353Z,16.70
2018-06-22T15:21:32.036Z,16.30
2018-06-22T15:24:00.249Z,16.30
2018-06-22T15:26:31.296Z,16.30
2018-06-22T15:28:59.465Z,16.20
2018-06-22T15:31:28.527Z,16.30
2018-06-22T15:34:02.165Z,16.30
2018-06-22T15:36:37.678Z,16.50
2018-06-22T15:39:13.296Z,16.30
2018-06-22T15:41:47.238Z,16.20
2018-06-22T15:44:20.964Z,16.00
2018-06-22T15:46:55.525Z,16.10
2018-06-22T15:49:29.353Z,16.20
2018-06-22T15:52:02.869Z,16.20
2018-06-22T15:55:06.748Z,16.30
2018-06-22T15:57:36.535Z,16.30
2018-06-22T16:00:07.483Z,16.50
2018-06-22T16:02:41.140Z,16.50
2018-06-22T16:05:09.742Z,16.40
2018-06-22T16:07:37.997Z,16.50
2018-06-22T16:10:06.358Z,16.40
2018-06-22T16:12:36.892Z,16.40
2018-06-22T16:15:12.394Z,16.20
2018-06-22T16:17:46.010Z,16.20
2018-06-22T16:20:19.672Z,16.30
2018-06-22T16:22:53.148Z,16.40
2018-06-22T16:25:27.795Z,16.50
2018-06-22T16:27:57.470Z,16.60
2018-06-22T16:30:28.495Z,16.60
2018-06-22T16:32:57.570Z,16.70
2018-06-22T16:35:26.538Z,16.90
2018-06-22T16:37:54.860Z,17.20
2018-06-22T16:40:23.155Z,17.30
2018-06-22T16:42:51.391Z,17.40
2018-06-22T16:45:22.672Z,17.40
2018-06-22T16:47:51.012Z,17.30
2018-06-22T16:50:19.244Z,17.10
2018-06-22T16:52:47.444Z,16.70
2018-06-22T16:55:15.620Z,16.30
2018-06-22T16:57:43.843Z,16.00
2018-06-22T17:00:12.046Z,15.90
2018-06-22T17:02:41.019Z,15.80
2018-06-22T17:05:09.224Z,15.70
2018-06-22T17:07:42.733Z,15.70
2018-06-22T17:10:16.401Z,15.60
2018-06-22T17:12:49.896Z,15.50
2018-06-22T17:15:23.569Z,15.30
2018-06-22T17:17:58.196Z,15.30
2018-06-22T17:20:26.365Z,15.30
2018-06-22T17:22:55.802Z,15.20
2018-06-22T17:25:24.162Z,15.10
2018-06-22T17:27:53.323Z,15.10
2018-06-22T17:30:23.126Z,15.00
2018-06-22T17:32:51.315Z,15.00
2018-06-22T17:35:19.544Z,15.00
2018-06-22T17:37:48.011Z,14.90
2018-06-22T17:40:16.240Z,15.00
2018-06-22T17:42:44.570Z,14.90
2018-06-22T17:45:13.140Z,14.90
2018-06-22T17:47:41.337Z,14.80
2018-06-22T17:50:14.819Z,14.80
2018-06-22T17:52:43.149Z,14.80
2018-06-22T17:55:11.556Z,14.80
2018-06-22T17:57:39.877Z,14.80
2018-06-22T18:00:13.521Z,14.80
2018-06-22T18:02:47.314Z,14.70
2018-06-22T18:07:50.061Z,14.70
2018-06-22T18:10:23.788Z,14.70
2018-06-22T18:12:54.640Z,14.70
2018-06-22T18:15:22.761Z,14.70
2018-06-22T18:17:51.390Z,14.60
2018-06-22T18:20:19.915Z,14.60
2018-06-22T18:22:48.241Z,14.60
2018-06-22T18:25:16.460Z,14.60
2018-06-22T18:27:45.118Z,14.60
2018-06-22T18:30:15.393Z,14.50
2018-06-22T18:32:44.775Z,14.40
2018-06-22T18:35:15.251Z,14.50
2018-06-22T18:37:43.429Z,14.40
2018-06-22T18:40:12.075Z,14.40
2018-06-22T18:42:40.436Z,14.30
2018-06-22T18:47:41.857Z,14.10
2018-06-22T18:50:10.164Z,14.00
2018-06-22T18:52:45.574Z,14.00
2018-06-22T18:55:19.051Z,13.90
2018-06-22T18:57:53.787Z,13.80
2018-06-22T19:00:29.509Z,13.70
2018-06-22T19:03:03.213Z,13.70
2018-06-22T19:05:31.899Z,13.60
2018-06-22T19:08:01.626Z,13.50
2018-06-22T19:10:43.575Z,13.50
2018-06-22T19:13:12.546Z,13.40
2018-06-22T19:15:42.194Z,13.30
2018-06-22T19:18:16.080Z,13.40
2018-06-22T19:20:46.830Z,13.30
2018-06-22T19:23:16.955Z,13.20
2018-06-22T19:25:45.192Z,13.20
2018-06-22T19:28:15.233Z,13.10
2018-06-22T19:30:48.950Z,13.10
2018-06-22T19:33:17.268Z,13.00
2018-06-22T19:35:45.645Z,13.00
2018-06-22T19:38:14.813Z,12.80
2018-06-22T19:40:43.021Z,12.70
2018-06-22T19:43:16.758Z,12.70
2018-06-22T19:45:50.417Z,12.50
2018-06-22T19:49:25.671Z,12.50
2018-06-22T19:51:59.854Z,12.40
2018-06-22T19:54:28.167Z,12.30
2018-06-22T19:56:56.445Z,12.30
2018-06-22T19:59:24.762Z,12.20
2018-06-22T20:01:53.015Z,12.20
2018-06-22T20:04:21.641Z,12.10
2018-06-22T20:06:49.927Z,12.00
2018-06-22T20:09:18.183Z,12.00
2018-06-22T20:11:46.492Z,11.90
2018-06-22T20:14:14.677Z,11.80
2018-06-22T20:16:42.887Z,11.70
2018-06-22T20:19:11.092Z,11.60
2018-06-22T20:21:39.325Z,11.60
2018-06-22T20:24:07.518Z,11.50
2018-06-22T20:26:35.759Z,11.50
2018-06-22T20:29:04.031Z,11.40
2018-06-22T20:31:42.600Z,11.30
2018-06-22T20:34:16.327Z,11.30
2018-06-22T20:39:25.956Z,11.20
2018-06-22T20:41:59.613Z,11.10
2018-06-22T20:44:33.342Z,11.00
2018-06-22T20:47:07.566Z,11.00
2018-06-22T20:49:41.274Z,10.90
2018-06-22T20:52:09.446Z,10.90
2018-06-22T20:54:37.612Z,10.80
2018-06-22T20:57:06.610Z,10.70
2018-06-22T20:59:34.809Z,10.70
2018-06-22T21:02:03.021Z,10.60
2018-06-22T21:04:31.230Z,10.50
2018-06-22T21:06:59.461Z,10.50
2018-06-22T21:09:27.849Z,10.40
2018-06-22T21:11:56.090Z,10.40
2018-06-22T21:14:24.334Z,10.30
2018-06-22T21:16:52.603Z,10.20
2018-06-22T21:19:20.843Z,10.10
2018-06-22T21:21:54.508Z,10.10
2018-06-22T21:24:22.692Z,10.00
2018-06-22T21:26:50.841Z,10.00
2018-06-22T21:29:24.412Z,10.00
2018-06-22T21:31:58.054Z,9.90
2018-06-22T21:34:32.244Z,9.80
2018-06-22T21:38:04.164Z,9.80
2018-06-22T21:40:32.309Z,9.80
2018-06-22T21:43:00.534Z,9.70
2018-06-22T21:45:28.691Z,9.70
2018-06-22T21:47:57.832Z,9.70
2018-06-22T21:50:26.026Z,9.60
2018-06-22T21:52:58.745Z,9.60
2018-06-22T21:55:26.937Z,9.60
2018-06-22T21:57:55.161Z,9.60
2018-06-22T22:00:28.533Z,9.50
2018-06-22T22:02:57.621Z,9.50
2018-06-22T22:05:26.113Z,9.40
2018-06-22T22:10:27.616Z,9.40
2018-06-22T22:12:55.814Z,9.40
2018-06-22T22:15:23.997Z,9.40
2018-06-22T22:17:52.145Z,9.30
2018-06-22T22:20:20.346Z,9.30
2018-06-22T22:22:48.684Z,9.30
2018-06-22T22:25:18.090Z,9.30
2018-06-22T22:27:46.291Z,9.30
2018-06-22T22:30:14.473Z,9.20
2018-06-22T22:32:42.639Z,9.20
2018-06-22T22:35:10.841Z,9.20
2018-06-22T22:37:39.057Z,9.20
2018-06-22T22:40:07.743Z,9.20
2018-06-22T22:42:35.920Z,9.10
2018-06-22T22:45:04.485Z,9.10
2018-06-22T22:47:32.706Z,9.10
2018-06-22T22:50:00.888Z,9.10
2018-06-22T22:52:29.070Z,9.10
2018-06-22T22:54:57.250Z,9.00
2018-06-22T22:57:25.413Z,9.00
2018-06-22T22:59:53.566Z,9.00
2018-06-22T23:02:21.725Z,9.00
2018-06-22T23:04:49.902Z,9.00
2018-06-22T23:07:18.069Z,9.00
2018-06-22T23:09:46.242Z,9.00
2018-06-22T23:14:42.838Z,9.00
2018-06-22T23:17:11.276Z,9.00
2018-06-22T23:19:39.538Z,9.00
2018-06-22T23:22:08.138Z,9.00
2018-06-22T23:24:36.358Z,9.00
2018-06-22T23:27:05.064Z,9.00
2018-06-22T23:29:38.731Z,9.10
2018-06-22T23:32:07.758Z,9.10
2018-06-22T23:34:36.070Z,9.20
2018-06-22T23:37:05.681Z,9.20
2018-06-22T23:39:33.965Z,9.20
2018-06-22T23:42:02.302Z,9.30
2018-06-22T23:44:30.506Z,9.30
2018-06-22T23:46:58.698Z,9.40
2018-06-22T23:49:26.881Z,9.50
